Time;durP1;ratioP1;P1;durP2;ratioP2;P2;SDS_P1;SDS_P2;PMS_P1;PMS_P2;Temp;Humidity;BMP_temperature;BMP_pressure;BME280_temperature;BME280_humidity;BME280_pressure;Samples;Min_cycle;Max_cycle;Signal;HPM_P1;HPM_P2
2021/08/19 00:02:06;;;;;;;6.30;4.03;;;14.30;99.90;;;;;;5227507;28;20213;-63
2021/08/19 00:04:38;;;;;;;7.47;4.27;;;14.30;99.90;;;;;;5227636;28;20233;-60
2021/08/19 00:07:10;;;;;;;7.00;4.20;;;14.30;99.90;;;;;;5228990;28;20209;-61
2021/08/19 00:09:42;;;;;;;6.20;4.40;;;14.40;99.90;;;;;;5231656;28;20307;-64
2021/08/19 00:12:13;;;;;;;5.90;4.07;;;14.40;99.90;;;;;;5231607;28;20251;-62
2021/08/19 00:14:48;;;;;;;6.07;3.90;;;14.40;99.90;;;;;;5232392;28;20225;-62
2021/08/19 00:17:20;;;;;;;6.20;3.70;;;14.30;99.90;;;;;;5232786;28;20215;-60
2021/08/19 00:19:51;;;;;;;6.63;3.77;;;14.40;99.90;;;;;;5231382;28;20229;-62
2021/08/19 00:22:23;;;;;;;6.07;4.17;;;14.40;99.90;;;;;;5231558;28;20609;-63
2021/08/19 00:24:55;;;;;;;4.90;3.60;;;14.40;99.90;;;;;;5232471;28;20582;-62
2021/08/19 00:27:27;;;;;;;5.63;3.60;;;14.40;99.90;;;;;;5231138;28;20550;-60
2021/08/19 00:29:59;;;;;;;5.13;3.90;;;14.40;99.90;;;;;;5232567;28;20225;-59
2021/08/19 00:32:31;;;;;;;4.40;3.57;;;14.40;99.90;;;;;;5215390;28;20297;-60
2021/08/19 00:35:08;;;;;;;7.60;3.77;;;14.40;99.90;;;;;;5210350;28;20253;-59
2021/08/19 00:37:40;;;;;;;6.73;3.53;;;14.40;99.90;;;;;;5210567;28;20201;-63
2021/08/19 00:40:12;;;;;;;5.20;3.30;;;14.40;99.90;;;;;;5211423;28;20226;-63
2021/08/19 00:42:44;;;;;;;5.37;3.70;;;14.40;99.90;;;;;;5210060;28;20561;-59
2021/08/19 00:45:16;;;;;;;4.60;3.60;;;14.40;99.90;;;;;;5210426;28;20226;-59
2021/08/19 00:47:48;;;;;;;5.30;3.90;;;14.40;99.90;;;;;;5210104;28;20221;-59
2021/08/19 00:50:20;;;;;;;5.13;3.80;;;14.40;99.90;;;;;;5211184;28;20232;-64
2021/08/19 00:52:54;;;;;;;4.40;3.70;;;14.40;99.90;;;;;;5222327;28;20194;-61
2021/08/19 00:55:29;;;;;;;4.87;3.87;;;14.40;99.90;;;;;;5230345;28;20232;-62
2021/08/19 00:58:01;;;;;;;5.30;3.80;;;14.40;99.90;;;;;;5231393;28;20201;-63
2021/08/19 01:00:34;;;;;;;5.23;3.90;;;14.40;99.90;;;;;;5231392;28;20252;-64
2021/08/19 01:03:07;;;;;;;4.03;3.63;;;14.40;99.90;;;;;;5231509;28;20210;-60
2021/08/19 01:05:41;;;;;;;7.43;4.30;;;14.40;99.90;;;;;;5230333;28;20225;-64
2021/08/19 01:08:15;;;;;;;4.63;4.00;;;14.40;99.90;;;;;;5231514;28;20215;-65
2021/08/19 01:10:48;;;;;;;5.13;3.60;;;14.40;99.90;;;;;;5231472;28;20236;-62
2021/08/19 01:13:22;;;;;;;5.57;4.20;;;14.40;99.90;;;;;;5231432;28;20209;-60
2021/08/19 01:15:54;;;;;;;5.37;4.00;;;14.40;99.90;;;;;;5230217;28;20620;-62
2021/08/19 01:18:43;;;;;;;9.00;4.30;;;14.40;99.90;;;;;;5229884;28;20259;-61
2021/08/19 01:21:16;;;;;;;6.33;4.10;;;14.40;99.90;;;;;;5231462;28;20294;-62
2021/08/19 01:23:48;;;;;;;6.50;3.93;;;14.40;99.90;;;;;;5230977;28;20228;-63
2021/08/19 01:26:24;;;;;;;6.03;4.27;;;14.50;99.90;;;;;;5231375;28;20661;-66
2021/08/19 01:28:59;;;;;;;6.73;4.23;;;14.50;99.90;;;;;;5231897;28;20210;-65
2021/08/19 01:31:37;;;;;;;9.30;4.60;;;14.50;99.90;;;;;;5229799;28;20236;-62
2021/08/19 01:34:09;;;;;;;6.40;4.50;;;14.50;99.90;;;;;;5229976;28;20194;-59
2021/08/19 01:36:41;;;;;;;7.43;4.47;;;14.50;99.90;;;;;;5230245;28;20824;-63
2021/08/19 01:39:13;;;;;;;8.57;4.63;;;14.50;99.90;;;;;;5229588;28;20205;-60
2021/08/19 01:41:45;;;;;;;5.37;4.30;;;14.60;99.90;;;;;;5230466;28;20220;-61
2021/08/19 01:44:22;;;;;;;7.50;4.50;;;14.60;99.90;;;;;;5229965;28;20559;-61
2021/08/19 01:46:59;;;;;;;8.33;4.83;;;14.60;99.90;;;;;;5230568;28;20233;-63
2021/08/19 01:49:35;;;;;;;7.03;5.10;;;14.60;99.90;;;;;;5230881;28;20209;-61
2021/08/19 01:52:10;;;;;;;7.23;5.27;;;14.70;99.90;;;;;;5229290;28;20233;-63
2021/08/19 01:54:42;;;;;;;7.10;5.50;;;14.60;99.90;;;;;;5230370;28;20197;-63
2021/08/19 01:59:54;;;;;;;9.17;6.10;;;14.60;99.90;;;;;;5350096;22;20234;-62
2021/08/19 02:02:27;;;;;;;8.80;6.23;;;14.70;99.90;;;;;;5176139;28;20203;-62
2021/08/19 02:05:01;;;;;;;8.00;5.77;;;14.70;99.90;;;;;;5173756;28;20223;-67
2021/08/19 02:07:36;;;;;;;9.70;6.00;;;14.70;99.90;;;;;;5189660;28;20217;-66
2021/08/19 02:10:10;;;;;;;8.43;6.40;;;14.70;99.90;;;;;;5172610;28;20226;-66
2021/08/19 02:12:42;;;;;;;8.87;5.97;;;14.70;99.90;;;;;;5172036;28;20645;-61
2021/08/19 02:15:15;;;;;;;7.60;5.57;;;14.70;99.90;;;;;;5188159;28;20214;-62
2021/08/19 02:17:46;;;;;;;8.43;6.43;;;14.80;99.90;;;;;;5188492;28;20203;-65
2021/08/19 02:20:18;;;;;;;9.63;6.27;;;14.80;99.90;;;;;;5155418;28;20235;-63
2021/08/19 02:22:50;;;;;;;8.37;6.60;;;14.80;99.90;;;;;;5188324;28;20211;-62
2021/08/19 02:25:23;;;;;;;10.90;6.73;;;14.80;99.90;;;;;;5170703;28;20530;-67
2021/08/19 02:27:56;;;;;;;8.43;6.33;;;14.80;99.90;;;;;;5189103;28;20235;-65
2021/08/19 02:30:28;;;;;;;8.80;6.00;;;14.90;99.90;;;;;;5188805;28;20674;-66
2021/08/19 02:33:01;;;;;;;8.27;6.50;;;14.90;99.90;;;;;;5188880;28;20705;-66
2021/08/19 02:35:33;;;;;;;9.80;6.90;;;14.90;99.90;;;;;;5171959;28;20239;-64
2021/08/19 02:38:06;;;;;;;11.13;6.80;;;14.90;99.90;;;;;;5171721;28;20198;-63
2021/08/19 02:40:40;;;;;;;9.43;6.53;;;14.90;99.90;;;;;;5171533;28;20237;-66
2021/08/19 02:43:12;;;;;;;7.77;6.43;;;15.00;99.90;;;;;;5172321;28;20677;-63
2021/08/19 02:45:46;;;;;;;9.53;6.13;;;15.00;99.90;;;;;;5188681;28;20321;-66
2021/08/19 02:48:21;;;;;;;9.10;6.10;;;14.90;99.90;;;;;;5172069;28;20570;-65
2021/08/19 02:50:53;;;;;;;7.20;5.97;;;14.90;99.90;;;;;;5188695;28;20579;-68
2021/08/19 02:53:25;;;;;;;9.60;6.50;;;14.90;99.90;;;;;;5171707;28;20217;-64
2021/08/19 02:55:57;;;;;;;9.73;5.90;;;15.00;99.90;;;;;;5188559;28;20231;-64
2021/08/19 02:58:29;;;;;;;9.80;6.47;;;14.90;99.90;;;;;;5171793;28;20191;-64
2021/08/19 03:01:01;;;;;;;9.27;5.97;;;15.00;99.90;;;;;;5187994;28;20261;-64
2021/08/19 03:03:36;;;;;;;8.80;6.00;;;15.00;99.90;;;;;;5188464;28;20221;-67
2021/08/19 03:06:08;;;;;;;8.47;5.80;;;15.00;99.90;;;;;;5171606;28;20613;-62
2021/08/19 03:08:44;;;;;;;6.60;5.90;;;15.00;99.90;;;;;;5172040;28;20276;-65
2021/08/19 03:11:16;;;;;;;7.63;6.63;;;15.00;99.90;;;;;;5154724;28;20235;-62
2021/08/19 03:13:48;;;;;;;9.30;5.93;;;15.00;99.90;;;;;;5188354;28;20276;-65
2021/08/19 03:16:23;;;;;;;8.83;6.10;;;15.00;99.90;;;;;;5188238;28;20230;-67
2021/08/19 03:19:01;;;;;;;7.43;5.70;;;15.00;99.90;;;;;;5171013;28;20206;-65
2021/08/19 03:21:35;;;;;;;10.73;5.90;;;15.00;99.90;;;;;;5187924;28;20245;-64
2021/08/19 03:24:08;;;;;;;7.17;6.17;;;15.00;99.90;;;;;;5171513;28;20308;-65
2021/08/19 03:26:41;;;;;;;7.70;6.30;;;15.00;99.90;;;;;;5188055;28;20322;-65
2021/08/19 03:29:13;;;;;;;9.03;5.70;;;15.00;99.90;;;;;;5188221;28;20210;-65
2021/08/19 03:31:47;;;;;;;12.97;6.20;;;15.00;99.90;;;;;;5187782;28;20235;-66
2021/08/19 03:34:19;;;;;;;9.70;5.80;;;15.00;99.90;;;;;;5170876;28;20301;-65
2021/08/19 03:36:52;;;;;;;9.77;6.07;;;15.10;99.90;;;;;;5188470;28;20223;-66
2021/08/19 03:39:28;;;;;;;7.57;5.83;;;15.00;99.90;;;;;;5187910;28;20210;-67
2021/08/19 03:42:01;;;;;;;10.20;6.57;;;15.00;99.90;;;;;;5170777;28;20230;-69
2021/08/19 03:44:34;;;;;;;11.23;6.03;;;15.10;99.90;;;;;;5188104;28;20218;-65
2021/08/19 03:47:09;;;;;;;6.77;6.07;;;15.10;99.90;;;;;;5187967;28;20686;-66
2021/08/19 03:49:41;;;;;;;8.10;5.37;;;15.10;99.90;;;;;;5187683;28;20538;-65
2021/08/19 03:52:13;;;;;;;8.97;6.20;;;15.10;99.90;;;;;;5154550;28;20237;-67
2021/08/19 03:54:45;;;;;;;8.80;6.13;;;15.10;99.90;;;;;;5188024;28;20203;-68
2021/08/19 03:57:17;;;;;;;6.77;5.50;;;15.10;99.90;;;;;;5188196;28;20227;-64
2021/08/19 03:59:49;;;;;;;7.77;5.37;;;15.10;99.90;;;;;;5154813;28;20298;-65
2021/08/19 04:02:21;;;;;;;8.90;5.70;;;15.20;99.90;;;;;;5170683;28;20241;-64
2021/08/19 04:04:53;;;;;;;9.47;6.20;;;15.20;99.90;;;;;;5187811;28;20206;-64
2021/08/19 04:07:25;;;;;;;7.67;5.70;;;15.20;99.90;;;;;;5154486;28;20782;-65
2021/08/19 04:09:57;;;;;;;7.07;5.63;;;15.20;99.90;;;;;;5187844;28;20625;-67
2021/08/19 04:12:29;;;;;;;9.27;5.53;;;15.20;99.90;;;;;;5170240;28;20234;-66
2021/08/19 04:15:03;;;;;;;9.93;5.43;;;15.20;99.90;;;;;;5187398;28;20203;-64
2021/08/19 04:17:35;;;;;;;9.37;5.77;;;15.20;99.90;;;;;;5188090;28;20226;-66
2021/08/19 04:20:10;;;;;;;7.03;5.80;;;15.20;99.90;;;;;;5171155;28;20230;-64
2021/08/19 04:22:44;;;;;;;7.33;5.70;;;15.30;99.90;;;;;;5187732;28;20230;-65
2021/08/19 04:25:16;;;;;;;10.03;5.30;;;15.30;99.90;;;;;;5170500;28;20210;-65
2021/08/19 04:27:48;;;;;;;7.87;5.43;;;15.30;99.90;;;;;;5187401;28;20234;-64
2021/08/19 04:30:22;;;;;;;10.30;5.93;;;15.30;99.90;;;;;;5170519;28;20530;-66
2021/08/19 04:32:54;;;;;;;13.50;6.37;;;15.30;99.90;;;;;;5187403;28;20242;-65
2021/08/19 04:35:30;;;;;;;7.63;5.30;;;15.30;99.90;;;;;;5154016;28;20213;-65
2021/08/19 04:38:02;;;;;;;7.57;5.93;;;15.30;99.90;;;;;;5170313;28;20230;-68
2021/08/19 04:40:34;;;;;;;7.17;5.63;;;15.40;99.90;;;;;;5187249;28;20211;-65
2021/08/19 04:43:06;;;;;;;6.67;5.47;;;15.40;99.90;;;;;;5187343;28;20536;-67
2021/08/19 04:45:41;;;;;;;8.80;5.63;;;15.40;99.90;;;;;;5187713;28;20234;-62
2021/08/19 04:48:13;;;;;;;6.03;5.33;;;15.40;99.90;;;;;;5187059;28;20284;-65
2021/08/19 04:50:46;;;;;;;7.97;5.77;;;15.50;99.90;;;;;;5170286;28;20211;-65
2021/08/19 04:53:18;;;;;;;8.07;6.17;;;15.50;99.90;;;;;;5187997;28;20519;-65
2021/08/19 04:55:50;;;;;;;8.43;6.13;;;15.50;99.90;;;;;;5174226;28;20221;-65
2021/08/19 04:58:22;;;;;;;8.47;6.37;;;15.50;99.90;;;;;;5157960;28;20560;-64
2021/08/19 05:00:54;;;;;;;8.87;6.23;;;15.50;99.90;;;;;;5191394;28;20362;-64
2021/08/19 05:03:27;;;;;;;10.03;5.90;;;15.40;99.90;;;;;;5190777;28;20245;-67
2021/08/19 05:05:59;;;;;;;8.83;6.40;;;15.40;99.90;;;;;;5191487;28;20226;-67
2021/08/19 05:08:32;;;;;;;8.23;6.07;;;15.40;99.90;;;;;;5173919;28;20630;-68
2021/08/19 05:11:04;;;;;;;9.37;5.97;;;15.40;99.90;;;;;;5191011;28;20281;-66
2021/08/19 05:13:39;;;;;;;8.13;6.33;;;15.40;99.90;;;;;;5157949;28;20199;-70
2021/08/19 05:16:11;;;;;;;12.03;6.77;;;15.40;99.90;;;;;;5174768;28;20214;-69
2021/08/19 05:18:43;;;;;;;7.93;6.60;;;15.30;99.90;;;;;;5191625;28;20234;-71
2021/08/19 05:21:16;;;;;;;9.70;7.20;;;15.30;99.90;;;;;;5174166;28;20229;-69
2021/08/19 05:23:48;;;;;;;9.90;6.57;;;15.30;99.90;;;;;;5173440;28;20222;-68
2021/08/19 05:26:20;;;;;;;8.77;6.63;;;15.30;99.90;;;;;;5173386;28;20191;-66
2021/08/19 05:28:52;;;;;;;8.67;6.10;;;15.30;99.90;;;;;;5190588;28;20199;-67
2021/08/19 05:31:24;;;;;;;7.53;6.47;;;15.30;99.90;;;;;;5190861;28;20506;-68
2021/08/19 05:33:58;;;;;;;10.93;6.90;;;15.30;99.90;;;;;;5157501;28;20754;-67
2021/08/19 05:36:35;;;;;;;10.33;6.30;;;15.30;99.90;;;;;;5191006;28;20562;-66
2021/08/19 05:39:10;;;;;;;9.90;6.20;;;15.30;99.90;;;;;;5157289;28;20210;-63
2021/08/19 05:41:42;;;;;;;9.47;6.97;;;15.30;99.90;;;;;;5173037;28;20218;-65
2021/08/19 05:44:14;;;;;;;9.97;7.77;;;15.30;99.90;;;;;;5156444;28;20638;-63
2021/08/19 05:46:45;;;;;;;12.37;7.93;;;15.30;99.90;;;;;;5172497;28;20206;-65
2021/08/19 05:49:17;;;;;;;9.00;6.73;;;15.20;99.90;;;;;;5173011;28;20625;-63
2021/08/19 05:51:50;;;;;;;11.10;7.13;;;15.20;99.90;;;;;;5172512;28;20240;-61
2021/08/19 05:54:25;;;;;;;8.70;5.33;;;15.20;99.90;;;;;;5173408;28;20598;-67
2021/08/19 05:56:57;;;;;;;6.53;4.30;;;15.10;99.90;;;;;;5156622;28;20234;-58
2021/08/19 05:59:30;;;;;;;5.53;4.37;;;15.10;99.90;;;;;;5172089;28;20206;-61
2021/08/19 06:02:02;;;;;;;9.43;5.63;;;15.10;99.90;;;;;;5189272;28;20596;-61
2021/08/19 06:04:38;;;;;;;7.80;5.10;;;15.10;99.90;;;;;;5171428;28;20587;-62
2021/08/19 06:07:15;;;;;;;10.37;4.70;;;15.10;99.90;;;;;;5189697;28;20305;-59
2021/08/19 06:09:47;;;;;;;4.80;3.60;;;15.10;99.90;;;;;;5172731;28;20225;-61
2021/08/19 06:12:22;;;;;;;5.43;3.80;;;15.20;99.90;;;;;;5155963;28;20258;-63
2021/08/19 06:14:54;;;;;;;5.73;3.67;;;15.30;99.90;;;;;;5188912;28;20207;-54
2021/08/19 06:17:32;;;;;;;7.30;3.40;;;15.30;99.90;;;;;;5189118;28;20221;-59
2021/08/19 06:20:06;;;;;;;5.87;3.03;;;15.40;99.90;;;;;;5171750;28;20211;-60
2021/08/19 06:22:38;;;;;;;4.40;3.30;;;15.40;99.90;;;;;;5189294;28;20214;-65
2021/08/19 06:25:13;;;;;;;5.50;2.90;;;15.40;99.90;;;;;;5189260;28;20210;-60
2021/08/19 06:27:46;;;;;;;4.57;2.77;;;15.40;99.90;;;;;;5172431;28;20529;-61
2021/08/19 06:30:20;;;;;;;5.77;3.07;;;15.40;99.90;;;;;;5189167;28;20718;-61
2021/08/19 06:32:52;;;;;;;5.20;3.47;;;15.50;99.90;;;;;;5171376;28;20234;-68
2021/08/19 06:35:24;;;;;;;4.87;3.37;;;15.70;99.90;;;;;;5188703;28;20237;-60
2021/08/19 06:37:56;;;;;;;8.50;3.87;;;15.90;99.90;;;;;;5188705;28;20210;-59
2021/08/19 06:40:29;;;;;;;5.17;3.63;;;16.10;99.90;;;;;;5188798;28;20547;-63
2021/08/19 06:43:01;;;;;;;5.43;4.23;;;16.20;99.90;;;;;;5188460;28;20290;-62
2021/08/19 06:45:33;;;;;;;5.17;4.40;;;16.30;99.90;;;;;;5188723;28;20214;-61
2021/08/19 06:48:08;;;;;;;8.53;4.80;;;16.40;99.90;;;;;;5171411;28;20221;-60
2021/08/19 06:50:39;;;;;;;7.07;4.73;;;16.40;99.90;;;;;;5188518;28;20650;-61
2021/08/19 06:53:14;;;;;;;7.40;5.60;;;16.50;99.90;;;;;;5154836;28;20219;-61
2021/08/19 06:55:47;;;;;;;5.87;5.23;;;16.50;99.90;;;;;;5171656;28;20194;-60
2021/08/19 06:58:19;;;;;;;7.43;5.80;;;16.60;99.90;;;;;;5188649;28;20214;-63
2021/08/19 07:00:53;;;;;;;6.23;5.47;;;16.70;99.90;;;;;;5188205;28;20549;-59
2021/08/19 07:03:26;;;;;;;6.55;5.55;;;16.90;99.90;;;;;;5170988;28;20210;-67
2021/08/19 07:06:00;;;;;;;8.15;5.90;;;17.10;99.90;;;;;;5188428;28;20301;-58
2021/08/19 07:08:37;;;;;;;8.03;6.73;;;17.30;99.90;;;;;;5188492;28;20594;-59
2021/08/19 07:11:12;;;;;;;10.23;6.53;;;17.30;99.90;;;;;;5172065;28;20513;-60
2021/08/19 07:13:47;;;;;;;8.17;7.00;;;17.30;99.90;;;;;;5188391;28;20210;-62
2021/08/19 07:16:19;;;;;;;7.93;6.45;;;17.20;99.90;;;;;;5187883;28;20214;-65
2021/08/19 07:18:51;;;;;;;8.83;6.60;;;17.20;99.90;;;;;;5188375;28;20202;-60
2021/08/19 07:21:25;;;;;;;8.20;5.93;;;17.20;99.90;;;;;;5171195;28;20553;-60
2021/08/19 07:23:57;;;;;;;11.23;6.68;;;17.10;99.90;;;;;;5170972;28;20217;-59
2021/08/19 07:26:29;;;;;;;8.00;6.07;;;17.00;99.90;;;;;;5154932;28;20229;-62
2021/08/19 07:29:02;;;;;;;8.57;6.60;;;17.00;99.90;;;;;;5170857;28;20578;-65
2021/08/19 07:31:35;;;;;;;10.67;7.40;;;17.00;99.90;;;;;;5170375;28;20207;-63
2021/08/19 07:34:08;;;;;;;10.20;7.30;;;17.00;99.90;;;;;;5171112;28;20577;-58
2021/08/19 07:36:40;;;;;;;9.57;7.13;;;16.90;99.90;;;;;;5170727;28;20203;-61
2021/08/19 07:39:11;;;;;;;11.73;6.55;;;17.00;99.90;;;;;;5187610;28;20210;-61
2021/08/19 07:41:43;;;;;;;7.80;6.70;;;17.00;99.90;;;;;;5170626;28;20261;-64
2021/08/19 07:44:15;;;;;;;7.10;6.07;;;17.00;99.90;;;;;;5187435;28;20210;-59
2021/08/19 07:46:52;;;;;;;9.67;6.23;;;17.20;99.90;;;;;;5187864;28;20211;-59
2021/08/19 07:49:26;;;;;;;6.93;5.77;;;17.50;99.90;;;;;;5170691;28;20509;-61
2021/08/19 07:51:58;;;;;;;8.97;6.23;;;17.90;99.90;;;;;;5170485;28;20586;-64
2021/08/19 07:54:30;;;;;;;8.37;5.73;;;18.10;99.90;;;;;;5153972;28;20286;-58
2021/08/19 07:57:03;;;;;;;9.68;4.70;;;18.00;99.90;;;;;;5169943;28;20207;-60
2021/08/19 07:59:35;;;;;;;5.68;4.60;;;18.00;99.90;;;;;;5154643;28;20273;-61
2021/08/19 08:02:28;;;;;;;7.05;4.22;;;18.00;99.90;;;;;;5172386;28;20191;-63
2021/08/19 08:05:00;;;;;;;5.05;3.97;;;17.90;99.90;;;;;;5187368;28;20225;-60
2021/08/19 08:07:35;;;;;;;5.20;4.10;;;17.80;99.90;;;;;;5187512;28;20206;-63
2021/08/19 08:10:10;;;;;;;6.68;4.03;;;17.80;99.90;;;;;;5159791;28;20199;-61
2021/08/19 08:12:44;;;;;;;6.32;4.15;;;17.80;99.90;;;;;;5171607;28;20227;-61
2021/08/19 08:15:18;;;;;;;7.95;4.30;;;18.00;99.90;;;;;;5153459;28;20211;-65
2021/08/19 08:17:50;;;;;;;6.95;4.50;;;18.40;99.90;;;;;;5176243;28;20258;-53
2021/08/19 08:20:22;;;;;;;8.50;4.35;;;18.70;99.90;;;;;;5166846;28;20542;-57
2021/08/19 08:22:59;;;;;;;6.53;4.20;;;18.90;99.90;;;;;;5166779;28;20219;-51
2021/08/19 08:25:30;;;;;;;10.68;4.10;;;19.30;99.90;;;;;;5162183;28;20191;-53
2021/08/19 08:28:10;;;;;;;7.88;4.07;;;19.30;99.90;;;;;;5166859;28;20290;-53
2021/08/19 08:30:46;;;;;;;12.82;3.78;;;19.50;99.90;;;;;;5191487;28;20226;-59
2021/08/19 08:33:19;;;;;;;9.75;3.60;;;19.70;99.90;;;;;;5173863;28;20578;-57
2021/08/19 08:35:51;;;;;;;10.43;3.08;;;19.70;99.90;;;;;;5174177;28;20213;-57
2021/08/19 08:38:24;;;;;;;7.85;4.15;;;19.70;99.90;;;;;;5174220;28;20203;-63
2021/08/19 08:40:56;;;;;;;6.32;2.85;;;19.70;99.90;;;;;;5157980;28;20207;-65
2021/08/19 08:43:32;;;;;;;6.55;3.80;;;19.60;99.90;;;;;;5178287;28;20272;-58
2021/08/19 08:46:10;;;;;;;8.02;3.58;;;19.40;99.90;;;;;;5190555;28;20225;-51
2021/08/19 08:48:44;;;;;;;7.53;3.42;;;19.40;99.90;;;;;;5190656;28;20194;-55
2021/08/19 08:51:16;;;;;;;5.97;3.88;;;19.60;99.90;;;;;;5186146;28;20215;-53
2021/08/19 08:53:49;;;;;;;6.28;2.90;;;19.80;99.90;;;;;;5190732;28;20245;-61
2021/08/19 08:56:28;;;;;;;6.18;2.85;;;20.00;99.90;;;;;;5174864;28;20230;-61
2021/08/19 08:59:01;;;;;;;4.45;2.65;;;20.40;99.90;;;;;;5191026;28;20203;-60
2021/08/19 09:01:33;;;;;;;7.38;2.95;;;20.60;99.90;;;;;;5191374;28;20581;-56
2021/08/19 09:04:06;;;;;;;3.17;2.55;;;20.70;99.90;;;;;;5172930;28;20695;-61
2021/08/19 09:06:46;;;;;;;4.88;2.20;;;20.80;99.90;;;;;;5188081;28;20227;-59
2021/08/19 09:09:18;;;;;;;4.35;2.22;;;20.90;99.90;;;;;;5170551;28;20624;-63
2021/08/19 09:12:00;;;;;;;5.75;2.28;;;20.90;99.90;;;;;;5172538;28;20238;-64
2021/08/19 09:14:35;;;;;;;6.30;2.33;;;20.50;99.90;;;;;;5179294;28;20211;-63
2021/08/19 09:17:07;;;;;;;4.13;2.47;;;20.20;99.90;;;;;;5172814;28;20635;-59
2021/08/19 09:19:39;;;;;;;10.73;2.58;;;19.60;99.90;;;;;;5172975;28;20202;-61
2021/08/19 09:22:13;;;;;;;7.25;2.40;;;19.30;99.90;;;;;;5173127;28;20528;-60
2021/08/19 09:24:45;;;;;;;7.28;1.73;;;19.10;99.90;;;;;;5165646;28;20237;-60
2021/08/19 09:27:17;;;;;;;4.70;1.98;;;18.60;99.90;;;;;;5169841;28;20227;-60
2021/08/19 09:29:50;;;;;;;4.97;2.42;;;18.30;99.90;;;;;;5170291;28;20527;-66
2021/08/19 09:32:31;;;;;;;3.90;1.50;;;18.10;99.90;;;;;;5169527;28;20251;-61
2021/08/19 09:35:12;;;;;;;2.72;1.50;;;17.80;99.90;;;;;;5152785;28;20204;-60
2021/08/19 09:37:56;;;;;;;3.10;1.90;;;17.60;99.90;;;;;;5167648;28;20276;-66
2021/08/19 09:40:28;;;;;;;4.18;1.95;;;17.40;99.90;;;;;;5169819;28;20245;-60
2021/08/19 09:43:00;;;;;;;4.88;2.05;;;17.40;99.90;;;;;;5152769;28;20242;-60
2021/08/19 09:45:43;;;;;;;4.72;1.80;;;17.40;99.90;;;;;;5185587;28;20543;-59
2021/08/19 09:48:15;;;;;;;6.22;2.20;;;17.60;99.90;;;;;;5189742;28;20249;-58
2021/08/19 09:50:48;;;;;;;5.50;1.80;;;17.70;99.90;;;;;;5173046;28;20207;-59
2021/08/19 09:53:23;;;;;;;4.33;2.60;;;17.80;99.90;;;;;;5172027;28;20242;-64
2021/08/19 09:55:55;;;;;;;7.38;2.58;;;18.10;99.90;;;;;;5189864;28;20191;-61
2021/08/19 09:58:35;;;;;;;8.70;2.92;;;18.30;99.90;;;;;;5189291;28;20242;-61
2021/08/19 10:01:07;;;;;;;3.55;2.22;;;18.40;99.90;;;;;;5167835;28;20250;-62
2021/08/19 10:03:39;;;;;;;6.15;2.35;;;18.50;99.90;;;;;;5169553;28;20239;-64
2021/08/19 10:06:13;;;;;;;8.57;2.70;;;18.60;99.90;;;;;;5152192;28;20218;-60
2021/08/19 10:08:45;;;;;;;5.55;2.83;;;18.70;99.90;;;;;;5156594;28;20241;-62
2021/08/19 10:11:17;;;;;;;3.88;2.22;;;18.70;99.90;;;;;;5189481;28;20207;-60
2021/08/19 10:13:51;;;;;;;5.18;2.60;;;18.80;99.90;;;;;;5189193;28;20577;-60
2021/08/19 10:16:23;;;;;;;5.75;1.88;;;18.90;99.90;;;;;;5188875;28;20211;-62
2021/08/19 10:19:02;;;;;;;5.38;2.08;;;19.00;99.90;;;;;;5189187;28;20231;-62
2021/08/19 10:21:36;;;;;;;2.90;1.73;;;19.00;99.90;;;;;;5189318;28;20201;-62
2021/08/19 10:24:09;;;;;;;4.28;2.25;;;19.10;99.90;;;;;;5188717;28;20249;-57
2021/08/19 10:26:43;;;;;;;4.57;2.60;;;19.40;99.90;;;;;;5189153;28;20218;-61
2021/08/19 10:29:15;;;;;;;4.47;1.90;;;19.40;99.90;;;;;;5169470;28;20241;-61
2021/08/19 10:31:48;;;;;;;5.78;2.03;;;19.40;99.90;;;;;;5151663;28;20214;-60
2021/08/19 10:34:59;;;;;;;3.38;1.75;;;19.20;99.90;;;;;;5168326;28;20243;-61
2021/08/19 10:37:47;;;;;;;5.15;2.42;;;19.10;99.90;;;;;;5178395;28;20205;-53
2021/08/19 10:40:22;;;;;;;7.15;2.47;;;18.90;99.90;;;;;;5153619;28;20224;-55
2021/08/19 10:42:54;;;;;;;2.72;2.25;;;19.20;99.90;;;;;;5151266;28;20210;-54
2021/08/19 10:45:29;;;;;;;4.32;2.53;;;19.40;99.90;;;;;;5168042;28;20231;-60
2021/08/19 10:48:00;;;;;;;3.50;2.30;;;19.60;99.90;;;;;;5168039;28;20207;-63
2021/08/19 10:50:44;;;;;;;6.65;2.80;;;19.80;99.90;;;;;;5166952;28;20294;-55
2021/08/19 10:53:17;;;;;;;4.00;2.15;;;19.80;99.90;;;;;;5171642;28;20231;-53
2021/08/19 10:55:54;;;;;;;3.78;2.50;;;19.80;99.90;;;;;;5159077;28;20577;-52
2021/08/19 10:58:37;;;;;;;4.45;2.20;;;19.90;99.90;;;;;;5181398;28;20195;-55
2021/08/19 11:01:18;;;;;;;3.75;2.00;;;20.20;99.90;;;;;;5151478;28;20243;-54
2021/08/19 11:03:53;;;;;;;3.35;2.20;;;20.30;99.90;;;;;;5160643;28;20203;-49
2021/08/19 11:06:53;;;;;;;3.95;2.13;;;20.50;99.90;;;;;;5181261;28;20236;-54
2021/08/19 11:09:26;;;;;;;3.90;2.50;;;20.70;99.90;;;;;;5158077;28;20475;-51
2021/08/19 11:12:04;;;;;;;3.45;2.10;;;20.70;99.90;;;;;;5164762;28;20230;-45
2021/08/19 11:14:39;;;;;;;5.32;2.30;;;20.80;99.90;;;;;;5167672;28;20536;-51
2021/08/19 11:17:18;;;;;;;3.70;2.08;;;20.70;99.90;;;;;;5182391;28;20643;-56
2021/08/19 11:19:50;;;;;;;3.38;2.10;;;20.80;99.90;;;;;;5167829;28;20183;-55
2021/08/19 11:22:22;;;;;;;3.65;2.13;;;21.00;99.90;;;;;;5172308;28;20223;-53
2021/08/19 11:24:54;;;;;;;4.38;2.15;;;21.10;99.90;;;;;;5153329;28;20200;-55
2021/08/19 11:27:26;;;;;;;2.78;1.80;;;21.10;99.90;;;;;;5170762;28;20262;-52
2021/08/19 11:29:58;;;;;;;3.50;2.13;;;21.00;99.90;;;;;;5136320;28;20612;-53
2021/08/19 11:32:39;;;;;;;4.28;1.80;;;20.90;99.90;;;;;;5187850;28;20683;-49
2021/08/19 11:35:28;;;;;;;4.07;2.20;;;20.90;99.90;;;;;;5179145;28;20249;-50
2021/08/19 11:38:14;;;;;;;3.55;1.60;;;21.10;99.90;;;;;;5181590;28;20218;-52
2021/08/19 11:40:49;;;;;;;3.80;1.90;;;21.00;99.90;;;;;;5158068;28;20203;-60
2021/08/19 11:43:31;;;;;;;3.33;1.75;;;20.90;99.90;;;;;;5167494;28;20250;-63
2021/08/19 11:46:13;;;;;;;5.20;2.05;;;20.70;99.90;;;;;;5167393;28;20208;-57
2021/08/19 11:48:48;;;;;;;3.60;1.30;;;20.60;99.90;;;;;;5176678;28;20219;-53
2021/08/19 11:51:26;;;;;;;2.03;1.23;;;19.80;99.90;;;;;;5174688;28;20206;-51
2021/08/19 11:54:02;;;;;;;4.38;1.33;;;18.60;99.90;;;;;;5173827;28;20234;-57
2021/08/19 11:56:54;;;;;;;3.58;1.48;;;17.50;99.90;;;;;;5187242;28;20202;-57
2021/08/19 11:59:26;;;;;;;3.35;1.05;;;17.00;99.90;;;;;;5151630;28;20338;-55
2021/08/19 12:01:58;;;;;;;4.95;1.52;;;16.80;99.90;;;;;;5178175;28;20682;-56
2021/08/19 12:04:36;;;;;;;2.75;1.35;;;16.80;99.90;;;;;;5173927;28;20238;-59
2021/08/19 12:07:14;;;;;;;2.03;1.20;;;16.90;99.90;;;;;;5173653;28;20207;-50
2021/08/19 12:09:48;;;;;;;3.47;1.60;;;17.00;99.90;;;;;;5167334;28;20231;-53
2021/08/19 12:12:25;;;;;;;3.83;1.52;;;17.20;99.90;;;;;;5170840;28;20258;-57
2021/08/19 12:14:59;;;;;;;4.97;2.00;;;17.50;99.90;;;;;;5176875;28;20679;-57
2021/08/19 12:17:31;;;;;;;3.25;1.83;;;17.80;99.90;;;;;;5154416;28;20494;-52
2021/08/19 12:20:19;;;;;;;4.88;1.70;;;18.30;99.90;;;;;;5170078;28;20265;-57
2021/08/19 12:22:51;;;;;;;2.35;1.45;;;18.70;99.90;;;;;;5190683;28;20202;-60
2021/08/19 12:25:32;;;;;;;3.50;1.80;;;18.90;99.90;;;;;;5175615;28;20254;-63
2021/08/19 12:28:07;;;;;;;3.63;1.45;;;19.10;99.90;;;;;;5191034;28;20234;-61
2021/08/19 12:31:02;;;;;;;4.97;1.70;;;19.10;99.90;;;;;;5188347;28;20230;-64
2021/08/19 12:33:40;;;;;;;3.65;1.98;;;19.20;99.90;;;;;;5190975;28;20654;-60
2021/08/19 12:36:14;;;;;;;3.72;1.65;;;19.40;99.90;;;;;;5177176;28;20246;-43
2021/08/19 12:38:48;;;;;;;7.03;2.85;;;19.60;99.90;;;;;;5170496;28;20207;-62
2021/08/19 12:41:23;;;;;;;5.35;2.10;;;19.70;99.90;;;;;;5170501;28;20275;-61
2021/08/19 12:44:07;;;;;;;8.32;3.58;;;19.80;99.90;;;;;;5170710;28;20208;-61
2021/08/19 12:46:42;;;;;;;7.43;1.95;;;20.00;99.90;;;;;;5175549;28;20223;-60
2021/08/19 12:49:24;;;;;;;2.83;1.85;;;20.10;99.90;;;;;;5191100;28;20202;-61
2021/08/19 12:52:17;;;;;;;4.68;2.20;;;20.00;99.90;;;;;;5190418;28;20757;-62
2021/08/19 12:55:08;;;;;;;5.38;1.55;;;19.70;99.90;;;;;;5190753;28;20233;-60
2021/08/19 12:57:44;;;;;;;3.53;1.88;;;19.60;99.90;;;;;;5190651;28;20629;-63
2021/08/19 13:00:18;;;;;;;4.82;2.38;;;19.60;99.90;;;;;;5190383;28;20238;-63
2021/08/19 13:02:51;;;;;;;4.00;2.08;;;19.70;99.90;;;;;;5173519;28;20280;-59
2021/08/19 13:05:27;;;;;;;3.17;1.90;;;19.70;99.90;;;;;;5190539;28;20294;-61
2021/08/19 13:07:59;;;;;;;2.72;1.67;;;19.80;99.90;;;;;;5190905;28;20230;-61
2021/08/19 13:10:31;;;;;;;3.33;1.70;;;19.90;99.90;;;;;;5184174;28;20210;-59
2021/08/19 13:13:03;;;;;;;4.15;1.65;;;19.90;99.90;;;;;;5170086;28;20246;-61
2021/08/19 13:15:35;;;;;;;4.40;2.47;;;19.90;99.90;;;;;;5169711;28;20540;-59
2021/08/19 13:18:11;;;;;;;5.43;2.85;;;19.70;99.90;;;;;;5153642;28;20263;-64
2021/08/19 13:20:45;;;;;;;7.32;2.55;;;19.60;99.90;;;;;;5183107;28;20199;-48
2021/08/19 13:23:20;;;;;;;4.38;1.73;;;19.60;99.90;;;;;;5152790;28;20231;-58
2021/08/19 13:25:55;;;;;;;2.15;1.40;;;19.70;99.90;;;;;;5176257;28;20530;-50